• Join FlightAware (Why Join?)
  • Login
  • US Flag 
 
08:39PM EST


 

Airport Tracker/Info


-or-


 

Live Flight TrackerFlight Track Log ✈ N762NC ✈ 17-Aug-2013 ✈ KLIT - KATL

Flight Track Log - Related Links

Times and Time Zones

All times are in EDT time to prevent confusion due to time zone crossing. See the N762NC flight status page for this flight to view local times or setup timezone preferences in your user account.

Time Position Orientation Groundspeed Altitude Reporting Facility
EDT Latitude Longitude Course Direction KTS MPH feet Rate Location/Type
07:07PM 34.7403 -92.1236 89° East 209 241 3,400  Level Memphis Center
07:08PM 34.7289 -92.0400 99° East 252 290 5,600 2,220 Climbing Memphis Center
07:09PM 34.7217 -91.9539 96° East 263 303 8,200 1,740 Climbing Memphis Center
07:10PM 34.7125 -91.8628 97° East 269 310 9,400 2,220 Climbing Memphis Center
07:11PM 34.6842 -91.7792 112° Southeast 269 310 12,700 2,400 Climbing Memphis Center
07:12PM 34.6394 -91.6850 120° Southeast 280 322 14,200 1,200 Climbing Memphis Center
07:13PM 34.5903 -91.5883 122° Southeast 327 376 15,200 1,080 Climbing Memphis Center
07:14PM 34.5536 -91.4944 115° Southeast 332 382 16,400 1,620 Climbing Memphis Center
07:15PM 34.5003 -91.3828 120° Southeast 363 418 18,500 2,100 Climbing Memphis Center
07:16PM 34.4950 -91.2567 93° East 363 418 20,700 1,920 Climbing Memphis Center
07:17PM 34.4917 -91.1233 92° East 379 436 22,400 1,440 Climbing Memphis Center
07:18PM 34.4883 -90.9819 92° East 404 465 23,600 1,320 Climbing Memphis Center
07:19PM 34.4911 -90.8358 89° East 424 488 25,100 1,380 Climbing Memphis Center
07:20PM 34.4936 -90.6872 89° East 431 496 26,400 1,260 Climbing Memphis Center
07:21PM 34.5003 -90.5233 87° East 441 507 27,700 1,020 Climbing Memphis Center
07:22PM 34.5067 -90.3647 87° East 441 507 28,500 600 Climbing Memphis Center
07:23PM 34.5128 -90.2008 87° East 464 534 29,000 240 Climbing Memphis Center
07:24PM 34.5186 -90.0319 88° East 482 555 29,000  Level Memphis Center
07:25PM 34.5286 -89.8581 86° East 502 578 29,000  Level Memphis Center
07:26PM 34.5422 -89.6864 84° East 515 593 29,000  Level Memphis Center
07:27PM 34.5558 -89.5122 85° East 520 598 29,000  Level Memphis Center
07:28PM 34.5714 -89.3406 84° East 520 598 29,000  Level Memphis Center
07:29PM 34.5864 -89.1664 84° East 520 598 29,000  Level Memphis Center
07:30PM 34.6014 -88.9972 84° East 520 598 29,000  Level Memphis Center
07:31PM 34.6181 -88.8253 83° East 514 592 29,000  Level Memphis Center
07:32PM 34.6325 -88.6533 84° East 519 597 29,000  Level Memphis Center
07:33PM 34.6511 -88.4864 82° East 519 597 29,000  Level Memphis Center
07:34PM 34.6669 -88.3092 84° East 514 592 29,000  Level Memphis Center
07:35PM 34.6825 -88.1269 84° East 531 611 29,000  Level Memphis Center
07:36PM 34.6669 -87.9558 96° East 526 605 29,000  Level Memphis Center
07:37PM 34.6514 -87.8047 97° East 520 598 29,000  Level Memphis Center
07:39PM 34.6231 -87.5397 97° East 525 604 29,000  Level Atlanta Center
07:40PM 34.6028 -87.3700 98° East 525 604 29,000  Level Atlanta Center
07:41PM 34.5781 -87.1975 100° East 520 598 29,000  Level Atlanta Center
07:42PM 34.5578 -87.0100 97° East 513 590 29,000  Level Atlanta Center
07:43PM 34.5367 -86.8403 99° East 513 590 29,000 -180 Level Atlanta Center
07:44PM 34.5133 -86.6706 99° East 513 590 28,700 -600 Descending Atlanta Center
07:45PM 34.4814 -86.5008 103° East 508 585 27,800 -1,020 Descending Atlanta Center
07:46PM 34.4408 -86.3358 107° East 508 585 26,700 -1,140 Descending Atlanta Center
07:47PM 34.3936 -86.1736 109° East 508 585 25,600 -900 Descending Atlanta Center
07:48PM 34.3483 -86.0139 109° East 508 585 24,900 -900 Descending Atlanta Center
07:49PM 34.3028 -85.8544 109° East 508 585 23,800 -1,620 Descending Atlanta Center
07:50PM 34.2608 -85.7228 111° Southeast 487 560 21,700 -2,400 Descending Atlanta Center
07:51PM 34.2231 -85.5714 107° East 477 549 19,100 -2,640 Descending Atlanta Center
07:52PM 34.2058 -85.4278 98° East 445 512 16,500 -2,520 Descending Atlanta Center
07:53PM 34.1950 -85.2894 95° East 416 479 14,100 -1,680 Descending Atlanta Center
07:54PM 34.1753 -85.1636 101° East 388 447 13,200 -540 Descending Atlanta Center
07:55PM 34.1219 -85.0525 120° Southeast 331 381 13,100 -300 Descending Atlanta Center
07:56PM 34.0619 -84.9817 136° Southeast 318 366 12,600 -1,020 Descending Atlanta Center
07:57PM 34.0144 -84.9108 129° Southeast 287 330 11,100 -1,260 Descending Atlanta Center
07:58PM 33.9586 -84.8453 136° Southeast 281 323 10,100 -1,080 Descending Atlanta Center
07:59PM 33.9108 -84.7897 136° Southeast 258 297 9,000 -1,380 Descending Atlanta Center
08:00PM 33.8633 -84.7367 137° Southeast 240 276 7,400 -1,320 Descending Atlanta Center
08:01PM 33.8069 -84.7064 156° South 229 264 6,400 -840 Descending Atlanta Center
08:02PM 33.7589 -84.7358 207° Southwest 194 223 5,800 -600 Descending Atlanta Center
08:03PM 33.7439 -84.8083 256° West 168 193 5,200 -240 Descending Atlanta Center
08:05PM 33.6833 -84.9000 232° Southwest 175 201 5,100 -60 Descending Atlanta TRACON
08:06PM 33.6500 -84.8667 140° Southeast 182 209 5,100  Level Atlanta TRACON
08:07PM 33.6500 -84.8000 90° East 184 212 5,100  Level Atlanta TRACON
08:08PM 33.6500 -84.7500 90° East 181 208 5,100 -120 Level Atlanta TRACON
08:09PM 33.6500 -84.6833 90° East 186 214 4,900 -600 Descending Atlanta TRACON
08:10PM 33.6500 -84.6167 90° East 178 205 4,000 -1,020 Descending Atlanta TRACON
08:11PM 33.6500 -84.5667 90° East 189 217 3,000 -900 Descending Atlanta TRACON
08:12PM 33.6500 -84.5000 90° East 159 183 2,200 -780 Descending Atlanta TRACON
08:13PM 33.6500 -84.4667 90° East 123 142 1,500 -720 Descending Atlanta TRACON